Time;durP1;ratioP1;P1;durP2;ratioP2;P2;SDS_P1;SDS_P2;PMS_P1;PMS_P2;Temp;Humidity;BMP_temperature;BMP_pressure;BME280_temperature;BME280_humidity;BME280_pressure;Samples;Min_cycle;Max_cycle;Signal;HPM_P1;HPM_P2
2023/04/10 00:01:19;;;;;;;29.80;16.98;;;10.20;99.90;;;;;;5001268;28;20026;-77
2023/04/10 00:03:45;;;;;;;25.02;14.68;;;10.20;99.90;;;;;;5001643;28;20609;-77
2023/04/10 00:06:10;;;;;;;27.33;15.07;;;10.40;99.90;;;;;;4995932;28;20116;-77
2023/04/10 00:08:36;;;;;;;28.13;15.52;;;10.50;99.90;;;;;;5015676;28;20054;-77
2023/04/10 00:11:02;;;;;;;25.05;14.40;;;10.40;99.90;;;;;;5001656;28;20041;-78
2023/04/10 00:13:29;;;;;;;26.92;15.50;;;10.50;99.90;;;;;;5017828;28;20029;-77
2023/04/10 00:15:54;;;;;;;25.30;13.85;;;10.50;99.90;;;;;;5021274;28;20038;-77
2023/04/10 00:18:20;;;;;;;23.40;13.57;;;10.60;99.90;;;;;;5004959;28;20101;-77
2023/04/10 00:20:46;;;;;;;23.42;12.38;;;10.50;99.90;;;;;;4999235;28;20044;-77
2023/04/10 00:23:11;;;;;;;20.33;11.48;;;10.60;99.90;;;;;;5013588;28;20494;-77
2023/04/10 00:25:37;;;;;;;18.05;10.77;;;10.70;99.90;;;;;;5001288;28;20112;-78
2023/04/10 00:28:02;;;;;;;20.13;10.50;;;10.70;99.90;;;;;;5001919;28;20394;-77
2023/04/10 00:30:28;;;;;;;16.48;10.00;;;10.80;99.90;;;;;;4986695;28;20062;-77
2023/04/10 00:32:54;;;;;;;14.10;8.90;;;10.80;99.90;;;;;;4980480;28;20568;-78
2023/04/10 00:35:19;;;;;;;15.77;8.82;;;10.90;99.90;;;;;;4997137;28;20117;-77
2023/04/10 00:37:45;;;;;;;15.77;8.43;;;10.90;99.90;;;;;;5000764;28;20100;-77
2023/04/10 00:40:11;;;;;;;12.65;8.13;;;11.00;99.90;;;;;;4999977;28;20037;-78
2023/04/10 00:42:37;;;;;;;12.98;7.32;;;11.00;99.90;;;;;;4985889;28;20616;-77
2023/04/10 00:45:02;;;;;;;11.63;7.85;;;11.10;99.90;;;;;;4986580;28;20081;-76
2023/04/10 00:47:28;;;;;;;12.23;7.68;;;11.20;99.90;;;;;;4983972;28;20041;-77
2023/04/10 00:49:54;;;;;;;11.20;6.78;;;11.20;99.90;;;;;;4991150;28;20068;-77
2023/04/10 00:52:20;;;;;;;7.20;5.20;;;11.30;99.90;;;;;;4998792;28;20030;-77
2023/04/10 00:54:46;;;;;;;10.20;6.05;;;11.60;99.90;;;;;;4995648;28;20037;-77
2023/04/10 00:57:11;;;;;;;8.32;5.38;;;11.90;99.90;;;;;;5002017;28;20041;-78
2023/04/10 00:59:37;;;;;;;7.57;5.50;;;12.00;99.90;;;;;;5032567;28;20097;-76
2023/04/10 01:02:03;;;;;;;8.38;4.95;;;12.20;99.90;;;;;;5002630;28;20029;-79
2023/04/10 01:04:30;;;;;;;7.72;5.15;;;12.30;99.90;;;;;;4998542;28;20084;-77
2023/04/10 01:07:02;;;;;;;10.95;5.93;;;12.30;99.90;;;;;;5002198;28;20452;-79
2023/04/10 01:09:46;;;;;;;11.55;5.60;;;12.30;99.90;;;;;;5005722;28;20096;-80
2023/04/10 01:12:35;;;;;;;10.77;5.70;;;12.30;99.90;;;;;;5005350;28;20096;-78
2023/04/10 01:15:07;;;;;;;8.90;5.57;;;12.20;99.90;;;;;;5003970;28;20033;-76
2023/04/10 01:17:42;;;;;;;12.80;6.57;;;12.20;99.90;;;;;;5003216;28;20871;-79
2023/04/10 01:20:13;;;;;;;13.00;6.07;;;12.10;99.90;;;;;;5003744;28;20056;-78
2023/04/10 01:22:45;;;;;;;10.38;5.68;;;12.00;99.90;;;;;;5018258;28;20490;-78
2023/04/10 01:25:24;;;;;;;9.38;6.00;;;12.00;99.90;;;;;;5023016;28;20514;-78
2023/04/10 01:28:18;;;;;;;13.90;6.13;;;12.00;99.90;;;;;;5011016;28;20030;-78
2023/04/10 01:30:46;;;;;;;12.43;6.28;;;11.90;99.90;;;;;;4995442;28;20045;-79
2023/04/10 01:33:16;;;;;;;12.25;6.47;;;11.90;99.90;;;;;;4997402;28;20034;-78
2023/04/10 01:35:46;;;;;;;9.15;5.72;;;11.90;99.90;;;;;;4999250;28;20148;-78
2023/04/10 01:38:16;;;;;;;11.38;5.78;;;11.90;99.90;;;;;;4984778;28;20152;-78
2023/04/10 01:40:48;;;;;;;10.15;6.30;;;11.90;99.90;;;;;;4986252;28;20159;-78
2023/04/10 01:43:16;;;;;;;9.48;5.80;;;11.90;99.90;;;;;;4999592;28;20064;-79
2023/04/10 01:45:43;;;;;;;12.10;6.03;;;11.80;99.90;;;;;;5001817;28;20046;-78
2023/04/10 01:48:10;;;;;;;11.00;6.03;;;11.80;99.90;;;;;;5005138;28;20076;-78
2023/04/10 01:50:37;;;;;;;9.25;5.75;;;11.80;99.90;;;;;;5002145;28;20109;-78
2023/04/10 01:53:05;;;;;;;11.38;6.25;;;11.80;99.90;;;;;;4999024;28;20033;-79
2023/04/10 01:55:32;;;;;;;10.23;6.53;;;11.80;99.90;;;;;;4998286;28;20033;-78
2023/04/10 01:57:58;;;;;;;9.60;5.95;;;11.90;99.90;;;;;;5018159;28;20034;-78
2023/04/10 02:00:24;;;;;;;9.15;6.32;;;11.90;99.90;;;;;;5004674;28;20044;-79
2023/04/10 02:02:50;;;;;;;11.90;5.57;;;11.80;99.90;;;;;;4998497;28;20054;-79
2023/04/10 02:05:16;;;;;;;12.40;6.03;;;11.80;99.90;;;;;;5000630;28;20014;-79
2023/04/10 02:07:45;;;;;;;10.95;5.97;;;11.80;99.90;;;;;;5031978;28;20136;-79
2023/04/10 02:10:30;;;;;;;12.77;5.93;;;11.80;99.90;;;;;;4997361;28;20032;-79
2023/04/10 02:13:03;;;;;;;8.40;5.88;;;11.80;99.90;;;;;;4989119;28;20136;-78
2023/04/10 02:15:31;;;;;;;9.60;6.13;;;11.80;99.90;;;;;;5000640;28;20044;-78
2023/04/10 02:17:59;;;;;;;13.30;6.28;;;11.80;99.90;;;;;;5000576;28;20048;-78
2023/04/10 02:20:25;;;;;;;13.65;6.07;;;11.80;99.90;;;;;;5028912;28;20057;-79
2023/04/10 02:22:53;;;;;;;12.80;6.10;;;11.80;99.90;;;;;;4997482;28;20041;-78
2023/04/10 02:25:18;;;;;;;10.82;6.45;;;11.80;99.90;;;;;;4997926;28;20068;-78
2023/04/10 02:27:44;;;;;;;11.27;5.82;;;11.70;99.90;;;;;;4997183;28;20041;-78
2023/04/10 02:30:10;;;;;;;13.48;5.72;;;11.70;99.90;;;;;;5010695;28;20025;-78
2023/04/10 02:32:36;;;;;;;9.05;5.55;;;11.70;99.90;;;;;;4999698;28;20524;-78
2023/04/10 02:35:02;;;;;;;9.95;6.25;;;11.70;99.90;;;;;;5000917;28;20025;-79
2023/04/10 02:37:28;;;;;;;14.45;6.20;;;11.60;99.90;;;;;;4999831;28;20076;-78
2023/04/10 02:39:54;;;;;;;13.68;6.65;;;11.60;99.90;;;;;;5001481;28;20084;-78
2023/04/10 02:42:20;;;;;;;11.30;6.57;;;11.60;99.90;;;;;;5000764;28;20041;-78
2023/04/10 02:44:46;;;;;;;8.82;5.05;;;11.60;99.90;;;;;;4998075;28;20030;-79
2023/04/10 02:47:12;;;;;;;12.00;6.15;;;11.60;99.90;;;;;;4986225;28;20061;-79
2023/04/10 02:49:37;;;;;;;12.00;6.03;;;11.50;99.90;;;;;;4988770;28;20596;-79
2023/04/10 02:52:03;;;;;;;11.18;6.22;;;11.50;99.90;;;;;;5001793;28;20044;-79
2023/04/10 02:54:29;;;;;;;11.07;5.82;;;11.50;99.90;;;;;;4991020;28;20034;-79
2023/04/10 02:56:56;;;;;;;11.02;5.80;;;11.50;99.90;;;;;;4998551;28;20128;-78
2023/04/10 02:59:22;;;;;;;13.25;5.72;;;11.50;99.90;;;;;;4999981;28;20049;-78
2023/04/10 03:01:48;;;;;;;12.93;5.50;;;11.40;99.90;;;;;;5000915;28;20037;-79
2023/04/10 03:04:13;;;;;;;11.23;5.45;;;11.40;99.90;;;;;;5000669;28;20042;-78
2023/04/10 03:06:39;;;;;;;9.23;5.10;;;11.40;99.90;;;;;;5000204;28;20026;-79
2023/04/10 03:09:05;;;;;;;10.23;5.22;;;11.40;99.90;;;;;;5003819;28;20073;-79
2023/04/10 03:11:30;;;;;;;12.20;6.05;;;11.40;99.90;;;;;;4999630;28;20029;-79
2023/04/10 03:13:59;;;;;;;13.95;5.68;;;11.40;99.90;;;;;;4999342;28;20464;-78
2023/04/10 03:16:24;;;;;;;14.70;7.00;;;11.40;99.90;;;;;;4999229;28;20223;-78
2023/04/10 03:18:51;;;;;;;12.27;5.43;;;11.30;99.90;;;;;;4999974;28;20026;-79
2023/04/10 03:21:17;;;;;;;10.45;5.32;;;11.30;99.90;;;;;;5000423;28;20209;-79
2023/04/10 03:23:42;;;;;;;10.77;5.55;;;11.30;99.90;;;;;;5000763;28;20045;-79
2023/04/10 03:26:08;;;;;;;11.68;5.63;;;11.40;99.90;;;;;;4999008;28;20113;-78
2023/04/10 03:28:35;;;;;;;11.48;5.45;;;11.40;99.90;;;;;;4998814;28;20125;-78
2023/04/10 03:31:01;;;;;;;13.38;5.78;;;11.40;99.90;;;;;;4999220;28;20034;-78
2023/04/10 03:33:27;;;;;;;13.55;6.00;;;11.40;99.90;;;;;;5000621;28;20033;-78
2023/04/10 03:35:53;;;;;;;14.32;6.72;;;11.30;99.90;;;;;;4986065;28;20033;-78
2023/04/10 03:38:18;;;;;;;13.88;6.28;;;11.30;99.90;;;;;;4999749;28;20026;-78
2023/04/10 03:40:44;;;;;;;14.77;7.70;;;11.30;99.90;;;;;;5014200;28;20029;-79
2023/04/10 03:43:10;;;;;;;13.02;7.60;;;11.20;99.90;;;;;;5000527;28;20562;-78
2023/04/10 03:45:35;;;;;;;15.32;8.15;;;11.20;99.90;;;;;;4997424;28;20034;-78
2023/04/10 03:48:01;;;;;;;15.07;7.65;;;11.10;99.90;;;;;;4980777;28;20124;-79
2023/04/10 03:50:26;;;;;;;18.30;8.20;;;11.10;99.90;;;;;;4981155;28;20052;-79
2023/04/10 03:52:52;;;;;;;15.13;7.70;;;11.10;99.90;;;;;;4996206;28;20117;-78
2023/04/10 03:55:18;;;;;;;17.50;8.65;;;11.20;99.90;;;;;;5014363;28;20121;-79
2023/04/10 03:57:47;;;;;;;18.67;9.40;;;11.20;99.90;;;;;;5012962;28;20026;-79
2023/04/10 04:00:14;;;;;;;19.02;8.30;;;11.10;99.90;;;;;;5000812;28;20037;-79
2023/04/10 04:02:40;;;;;;;13.80;8.05;;;11.10;99.90;;;;;;4987007;28;20022;-79
2023/04/10 04:05:06;;;;;;;14.50;8.25;;;11.10;99.90;;;;;;5013112;28;20041;-78
2023/04/10 04:07:32;;;;;;;22.73;9.38;;;11.10;99.90;;;;;;5007884;28;20056;-79
2023/04/10 04:09:58;;;;;;;19.98;9.55;;;11.10;99.90;;;;;;4987416;28;20035;-79
2023/04/10 04:12:23;;;;;;;19.02;9.73;;;11.00;99.90;;;;;;4985450;28;20450;-79
2023/04/10 04:14:49;;;;;;;16.75;9.18;;;11.10;99.90;;;;;;4994426;28;20034;-79
2023/04/10 04:17:14;;;;;;;14.98;9.23;;;11.10;99.90;;;;;;4978863;28;20031;-79
2023/04/10 04:19:40;;;;;;;16.40;8.35;;;11.10;99.90;;;;;;5007707;28;20186;-79
2023/04/10 04:22:06;;;;;;;11.13;7.82;;;11.10;99.90;;;;;;5004215;28;20034;-79
2023/04/10 04:24:31;;;;;;;15.75;7.47;;;11.10;99.90;;;;;;5000430;28;20421;-79
2023/04/10 04:26:57;;;;;;;11.05;6.43;;;11.10;99.90;;;;;;4999231;28;20113;-80
2023/04/10 04:29:22;;;;;;;8.77;5.75;;;11.00;99.90;;;;;;5000598;28;20452;-81
2023/04/10 04:31:48;;;;;;;10.98;6.20;;;10.90;99.90;;;;;;4997078;28;20097;-80
2023/04/10 04:34:13;;;;;;;7.82;5.63;;;10.90;99.90;;;;;;5001609;28;20030;-79
2023/04/10 04:36:39;;;;;;;10.15;6.32;;;10.90;99.90;;;;;;4998598;28;20045;-81
2023/04/10 04:39:05;;;;;;;9.52;5.75;;;10.80;99.90;;;;;;5005862;28;20113;-80
2023/04/10 04:41:31;;;;;;;12.80;6.57;;;10.70;99.90;;;;;;5010590;28;20029;-81
2023/04/10 04:43:57;;;;;;;9.30;5.53;;;10.70;99.90;;;;;;4991377;28;20038;-79
2023/04/10 04:46:23;;;;;;;11.88;6.15;;;10.70;99.90;;;;;;4989232;28;20121;-81
2023/04/10 04:48:49;;;;;;;8.27;5.68;;;10.70;99.90;;;;;;5003893;28;20129;-81
2023/04/10 04:51:15;;;;;;;10.40;5.18;;;10.80;99.90;;;;;;5003983;28;20048;-82
2023/04/10 04:53:40;;;;;;;8.93;5.57;;;10.70;99.90;;;;;;5004455;28;20080;-82
2023/04/10 04:56:06;;;;;;;9.23;5.07;;;10.80;99.90;;;;;;5003599;28;20026;-81
2023/04/10 04:58:32;;;;;;;9.18;5.32;;;10.80;99.90;;;;;;5002941;28;20054;-82
2023/04/10 05:00:58;;;;;;;11.43;5.57;;;10.80;99.90;;;;;;5003879;28;20062;-81
2023/04/10 05:03:24;;;;;;;7.18;5.45;;;10.80;99.90;;;;;;5001879;28;20045;-81
2023/04/10 05:05:49;;;;;;;9.07;5.97;;;10.80;99.90;;;;;;5002227;28;20052;-81
2023/04/10 05:08:15;;;;;;;7.38;5.22;;;10.80;99.90;;;;;;4997792;28;20537;-81
2023/04/10 05:10:40;;;;;;;12.13;5.65;;;10.80;99.90;;;;;;4983690;28;20068;-82
2023/04/10 05:13:06;;;;;;;11.18;6.35;;;10.80;99.90;;;;;;4993596;28;20033;-82
2023/04/10 05:15:32;;;;;;;8.20;6.70;;;10.80;99.90;;;;;;5002798;28;20041;-83
2023/04/10 05:17:57;;;;;;;11.98;7.05;;;10.90;99.90;;;;;;5005296;28;20038;-83
2023/04/10 05:20:23;;;;;;;12.82;7.32;;;10.80;99.90;;;;;;5006722;28;20029;-81
2023/04/10 05:22:49;;;;;;;13.27;7.93;;;10.80;99.90;;;;;;5002402;28;20044;-83
2023/04/10 05:25:15;;;;;;;14.63;8.98;;;10.80;99.90;;;;;;5003037;28;20038;-82
2023/04/10 05:27:40;;;;;;;15.93;8.90;;;10.80;99.90;;;;;;5000779;28;20429;-83
2023/04/10 05:30:06;;;;;;;18.15;9.05;;;10.80;99.90;;;;;;5002777;28;20080;-83
2023/04/10 05:32:32;;;;;;;17.45;8.90;;;10.80;99.90;;;;;;5001927;28;20552;-82
2023/04/10 05:34:58;;;;;;;15.57;9.38;;;10.90;99.90;;;;;;5001884;28;20128;-82
2023/04/10 05:37:23;;;;;;;13.57;9.32;;;10.90;99.90;;;;;;5000447;28;20030;-83
2023/04/10 05:39:49;;;;;;;20.38;10.60;;;10.90;99.90;;;;;;5003051;28;20026;-82
2023/04/10 05:42:15;;;;;;;18.88;11.30;;;10.90;99.90;;;;;;5003160;28;20026;-82
2023/04/10 05:44:40;;;;;;;20.45;11.05;;;10.90;99.90;;;;;;4994859;28;20033;-81
2023/04/10 05:47:06;;;;;;;18.50;11.10;;;10.90;99.90;;;;;;4996721;28;20120;-82
2023/04/10 05:49:32;;;;;;;20.30;11.50;;;10.90;99.90;;;;;;4999695;28;20128;-83
2023/04/10 05:51:58;;;;;;;19.13;12.65;;;10.90;99.90;;;;;;5005901;28;20037;-82
2023/04/10 05:54:23;;;;;;;17.90;11.38;;;10.90;99.90;;;;;;5003848;28;20052;-82
2023/04/10 05:56:49;;;;;;;19.33;11.43;;;10.90;99.90;;;;;;5009368;28;20056;-82
2023/04/10 05:59:14;;;;;;;22.83;11.65;;;10.90;99.90;;;;;;5003260;28;20044;-83
2023/04/10 06:01:40;;;;;;;20.30;11.48;;;10.90;99.90;;;;;;5002023;28;20034;-83
2023/04/10 06:04:06;;;;;;;17.95;11.65;;;10.90;99.90;;;;;;5003659;28;20038;-82
2023/04/10 06:06:32;;;;;;;18.58;12.63;;;10.90;99.90;;;;;;5006860;28;20021;-82
2023/04/10 06:08:58;;;;;;;19.90;13.05;;;11.00;99.90;;;;;;5003990;28;20502;-82
2023/04/10 06:11:23;;;;;;;21.65;12.57;;;10.90;99.90;;;;;;5004078;28;20034;-83
2023/04/10 06:13:49;;;;;;;19.52;12.38;;;11.00;99.90;;;;;;5001976;28;20119;-83
2023/04/10 06:16:15;;;;;;;22.42;14.32;;;11.00;99.90;;;;;;5004456;28;20034;-84
2023/04/10 06:18:41;;;;;;;25.70;14.85;;;11.00;99.90;;;;;;5003886;28;20484;-84
2023/04/10 06:21:07;;;;;;;23.17;15.60;;;11.00;99.90;;;;;;5017421;28;20033;-83
2023/04/10 06:23:33;;;;;;;28.20;16.02;;;11.00;99.90;;;;;;5000710;28;20052;-83
2023/04/10 06:25:59;;;;;;;21.23;14.85;;;11.00;99.90;;;;;;4998684;28;20036;-83
2023/04/10 06:28:25;;;;;;;22.63;13.98;;;11.00;99.90;;;;;;4999519;28;20033;-83
2023/04/10 06:30:51;;;;;;;23.08;13.80;;;11.00;99.90;;;;;;5000669;28;20654;-83
2023/04/10 06:33:16;;;;;;;23.90;13.18;;;11.00;99.90;;;;;;5000825;28;20034;-83
2023/04/10 06:35:42;;;;;;;18.40;11.40;;;11.00;99.90;;;;;;5002524;28;20026;-83
2023/04/10 06:38:08;;;;;;;15.80;11.80;;;11.10;99.90;;;;;;5001836;28;20037;-82
2023/04/10 06:40:34;;;;;;;19.25;11.63;;;11.10;99.90;;;;;;5021096;28;20116;-83
2023/04/10 06:43:00;;;;;;;18.38;11.18;;;11.00;99.90;;;;;;4999163;28;20067;-84
2023/04/10 06:45:26;;;;;;;17.15;10.65;;;11.10;99.90;;;;;;4997834;28;20030;-81
2023/04/10 06:47:52;;;;;;;14.93;10.60;;;11.10;99.90;;;;;;4999150;28;20111;-82
2023/04/10 06:50:17;;;;;;;14.63;10.93;;;11.10;99.90;;;;;;5000638;28;20109;-82
2023/04/10 06:52:44;;;;;;;19.48;10.05;;;11.10;99.90;;;;;;4998218;28;20041;-82
2023/04/10 06:55:11;;;;;;;16.15;9.90;;;11.20;99.90;;;;;;5006286;28;20548;-81
2023/04/10 06:57:38;;;;;;;18.00;9.77;;;11.20;99.90;;;;;;5017878;28;20370;-81
2023/04/10 07:00:04;;;;;;;14.43;9.65;;;11.20;99.90;;;;;;5034704;28;20037;-81
2023/04/10 07:02:30;;;;;;;13.98;9.18;;;11.20;99.90;;;;;;5017012;28;20033;-81
2023/04/10 07:04:56;;;;;;;17.92;9.40;;;11.30;99.90;;;;;;5001711;28;20116;-81
2023/04/10 07:07:22;;;;;;;19.38;9.68;;;11.40;99.90;;;;;;5018128;28;20037;-81
2023/04/10 07:09:47;;;;;;;14.50;9.35;;;11.30;99.90;;;;;;5003939;28;20038;-81
2023/04/10 07:12:13;;;;;;;14.63;8.10;;;11.20;99.90;;;;;;4996377;28;20034;-80
2023/04/10 07:14:39;;;;;;;17.30;8.52;;;11.30;99.90;;;;;;5000637;28;20863;-80
2023/04/10 07:17:04;;;;;;;16.75;8.77;;;11.30;99.90;;;;;;4996315;28;20042;-80
2023/04/10 07:19:30;;;;;;;14.93;8.80;;;11.30;99.90;;;;;;4999869;28;20034;-81
2023/04/10 07:21:56;;;;;;;13.60;7.57;;;11.30;99.90;;;;;;5003947;28;20026;-81
2023/04/10 07:24:22;;;;;;;14.23;7.72;;;11.30;99.90;;;;;;5002616;28;20053;-81
2023/04/10 07:26:48;;;;;;;12.90;7.38;;;11.40;99.90;;;;;;5002559;28;20028;-81
2023/04/10 07:29:14;;;;;;;12.77;6.53;;;11.30;99.90;;;;;;5014699;28;20049;-81
2023/04/10 07:31:40;;;;;;;10.50;6.30;;;11.40;99.90;;;;;;5005954;28;20028;-80
2023/04/10 07:34:06;;;;;;;11.00;6.40;;;11.30;99.90;;;;;;5002530;28;20041;-81
2023/04/10 07:36:32;;;;;;;11.02;5.80;;;11.40;99.90;;;;;;5002895;28;20032;-81
2023/04/10 07:38:58;;;;;;;11.48;5.80;;;11.30;99.90;;;;;;5000033;28;20030;-81
2023/04/10 07:41:24;;;;;;;9.93;6.20;;;11.30;99.90;;;;;;4997072;28;20375;-82
2023/04/10 07:43:49;;;;;;;10.65;5.28;;;11.30;99.90;;;;;;5003977;28;20555;-81
2023/04/10 07:46:16;;;;;;;9.13;5.28;;;11.40;99.90;;;;;;5005020;28;20034;-80
2023/04/10 07:48:43;;;;;;;14.27;5.25;;;11.30;99.90;;;;;;5000991;28;20034;-81
2023/04/10 07:51:08;;;;;;;10.90;4.93;;;11.30;99.90;;;;;;5000057;28;20037;-80
2023/04/10 07:53:35;;;;;;;10.07;4.78;;;11.30;99.90;;;;;;5004878;28;20520;-80
2023/04/10 07:56:01;;;;;;;7.55;4.65;;;11.30;99.90;;;;;;5005239;28;20034;-81
2023/04/10 07:58:27;;;;;;;10.07;4.95;;;11.30;99.90;;;;;;4998464;28;20614;-78
2023/04/10 08:00:53;;;;;;;7.68;4.63;;;11.20;99.90;;;;;;4995895;28;20048;-80
2023/04/10 08:03:18;;;;;;;8.95;4.60;;;11.10;99.90;;;;;;4994378;28;20038;-81
2023/04/10 08:05:44;;;;;;;10.98;4.57;;;11.10;99.90;;;;;;4991515;28;20030;-81
2023/04/10 08:08:10;;;;;;;13.02;4.85;;;11.10;99.90;;;;;;4986940;28;20077;-81
2023/04/10 08:10:37;;;;;;;7.72;4.57;;;11.10;99.90;;;;;;4985596;28;20033;-80
2023/04/10 08:13:03;;;;;;;11.30;4.65;;;11.10;99.90;;;;;;4987779;28;20029;-79
2023/04/10 08:15:29;;;;;;;7.20;4.45;;;11.00;99.90;;;;;;4997109;28;20091;-82
2023/04/10 08:17:54;;;;;;;15.60;4.88;;;11.10;99.90;;;;;;4996410;28;20033;-81
2023/04/10 08:20:20;;;;;;;9.43;4.93;;;11.00;99.90;;;;;;4996672;28;20034;-78
2023/04/10 08:22:46;;;;;;;10.85;5.50;;;11.00;99.90;;;;;;4998978;28;20144;-80
2023/04/10 08:25:11;;;;;;;11.00;4.57;;;10.90;99.90;;;;;;4998137;28;20526;-80
2023/04/10 08:27:37;;;;;;;10.20;5.13;;;10.90;99.90;;;;;;4993530;28;20600;-81
2023/04/10 08:30:03;;;;;;;9.23;5.00;;;10.90;99.90;;;;;;4995872;28;20231;-80
2023/04/10 08:32:29;;;;;;;8.45;4.43;;;10.90;99.90;;;;;;4996009;28;20041;-82
2023/04/10 08:34:55;;;;;;;9.60;4.78;;;10.90;99.90;;;;;;4998462;28;20052;-80
2023/04/10 08:37:21;;;;;;;7.90;3.85;;;11.00;99.90;;;;;;4995331;28;20083;-80
2023/04/10 08:39:47;;;;;;;5.78;4.10;;;11.10;99.90;;;;;;4997564;28;20047;-80
2023/04/10 08:42:12;;;;;;;10.57;3.40;;;11.10;99.90;;;;;;5001959;28;20061;-80
2023/04/10 08:44:38;;;;;;;7.28;3.70;;;11.20;99.90;;;;;;5022279;28;20076;-80
2023/04/10 08:47:05;;;;;;;8.60;3.60;;;11.30;99.90;;;;;;5013082;28;20037;-80
2023/04/10 08:49:53;;;;;;;7.07;3.72;;;11.30;99.90;;;;;;4998752;28;20038;-82
2023/04/10 08:52:24;;;;;;;10.95;4.20;;;11.40;99.90;;;;;;5008177;28;20084;-81
2023/04/10 08:54:54;;;;;;;7.80;3.95;;;11.30;99.90;;;;;;5014420;28;20039;-83
2023/04/10 08:57:21;;;;;;;6.57;3.95;;;11.30;99.90;;;;;;4993832;28;20046;-82
2023/04/10 08:59:47;;;;;;;8.65;3.72;;;11.30;99.90;;;;;;5004522;28;20590;-83
2023/04/10 09:02:13;;;;;;;10.00;3.70;;;11.20;99.90;;;;;;5017006;28;20029;-81
2023/04/10 09:04:39;;;;;;;8.52;3.45;;;11.20;99.90;;;;;;5008480;28;20107;-80
2023/04/10 09:07:05;;;;;;;5.47;3.25;;;11.20;99.90;;;;;;4996583;28;20049;-81
2023/04/10 09:09:33;;;;;;;6.38;2.83;;;11.10;99.90;;;;;;5002176;28;20037;-82
2023/04/10 09:12:01;;;;;;;5.53;2.53;;;11.10;99.90;;;;;;5032046;28;20108;-83
2023/04/10 09:14:31;;;;;;;5.45;2.28;;;11.10;99.90;;;;;;5003276;28;20465;-80
2023/04/10 09:17:32;;;;;;;4.28;2.63;;;11.00;99.90;;;;;;5002916;28;20104;-80
2023/04/10 09:19:58;;;;;;;5.82;2.15;;;11.00;99.90;;;;;;4939870;28;20035;-81
2023/04/10 09:22:31;;;;;;;4.45;2.33;;;11.00;99.90;;;;;;4990050;28;20111;-83
2023/04/10 09:24:59;;;;;;;5.55;1.95;;;11.00;99.90;;;;;;5005281;28;20108;-80
2023/04/10 09:27:36;;;;;;;4.40;2.33;;;10.90;99.90;;;;;;5007883;28;20034;-84
2023/04/10 09:30:02;;;;;;;5.45;1.98;;;10.80;99.90;;;;;;5000891;28;20192;-83
2023/04/10 09:32:45;;;;;;;4.82;2.10;;;10.90;99.90;;;;;;5006766;28;20049;-82
2023/04/10 09:35:13;;;;;;;6.82;2.60;;;10.90;99.90;;;;;;4996044;28;20116;-79
2023/04/10 09:37:40;;;;;;;9.23;2.22;;;11.00;99.90;;;;;;5000918;28;20029;-85
2023/04/10 09:40:25;;;;;;;4.43;2.00;;;11.00;99.90;;;;;;5000040;28;20282;-81
2023/04/10 09:42:54;;;;;;;3.50;1.83;;;11.10;99.90;;;;;;4999023;28;20225;-83
2023/04/10 09:45:21;;;;;;;4.65;2.40;;;11.20;99.90;;;;;;5000375;28;20040;-85
2023/04/10 09:48:06;;;;;;;4.88;1.98;;;11.20;99.90;;;;;;4997661;28;20117;-85
2023/04/10 09:50:35;;;;;;;7.38;2.20;;;11.10;99.90;;;;;;5012757;28;20279;-83
2023/04/10 09:53:01;;;;;;;6.05;2.05;;;11.10;99.90;;;;;;5003860;28;20026;-83
2023/04/10 09:55:27;;;;;;;8.18;1.92;;;11.10;99.90;;;;;;4999731;28;20095;-83
2023/04/10 09:57:53;;;;;;;4.47;2.50;;;11.10;99.90;;;;;;5017041;28;21672;-80
2023/04/10 10:00:19;;;;;;;9.77;2.50;;;11.10;99.90;;;;;;4998168;28;20552;-79
2023/04/10 10:02:45;;;;;;;5.78;2.80;;;11.10;99.90;;;;;;4998014;28;20386;-81
2023/04/10 10:05:11;;;;;;;6.85;2.20;;;11.10;99.90;;;;;;5001848;28;20121;-82
2023/04/10 10:07:38;;;;;;;7.38;2.40;;;11.30;99.90;;;;;;5002546;28;20042;-84
2023/04/10 10:10:06;;;;;;;6.75;2.65;;;11.30;99.90;;;;;;5000236;28;20061;-86
2023/04/10 10:12:45;;;;;;;6.68;2.58;;;11.50;99.90;;;;;;5003044;28;20034;-80
2023/04/10 10:15:29;;;;;;;5.47;2.40;;;11.50;99.90;;;;;;4998817;28;21577;-86
2023/04/10 10:18:26;;;;;;;3.90;2.15;;;11.60;99.90;;;;;;5028211;28;20529;-84
2023/04/10 10:20:52;;;;;;;4.55;2.13;;;11.80;99.90;;;;;;4998001;28;20025;-83
2023/04/10 10:23:20;;;;;;;4.55;2.20;;;11.70;99.90;;;;;;5001737;28;20128;-84
2023/04/10 10:25:47;;;;;;;7.93;2.25;;;11.80;99.90;;;;;;4995021;28;21111;-86
2023/04/10 10:28:13;;;;;;;7.88;2.20;;;11.80;99.90;;;;;;5028403;28;20034;-86
2023/04/10 10:30:39;;;;;;;5.07;2.28;;;11.90;99.90;;;;;;4999318;28;20029;-84
2023/04/10 10:33:07;;;;;;;8.25;2.35;;;12.00;99.90;;;;;;5001404;28;20509;-85
2023/04/10 10:35:36;;;;;;;8.38;2.88;;;12.00;99.90;;;;;;4998600;28;20041;-86
2023/04/10 10:38:04;;;;;;;3.22;2.45;;;12.10;99.90;;;;;;4996001;28;20036;-82
2023/04/10 10:40:41;;;;;;;4.35;2.70;;;12.10;99.90;;;;;;5033606;28;20494;-82
2023/04/10 10:43:38;;;;;;;7.55;2.90;;;12.00;99.90;;;;;;4999251;28;20172;-82
2023/04/10 10:46:10;;;;;;;5.03;2.70;;;12.10;99.90;;;;;;5031927;28;20065;-83
2023/04/10 10:48:35;;;;;;;6.57;2.72;;;12.00;99.90;;;;;;5018877;28;20029;-81
2023/04/10 10:51:02;;;;;;;5.60;2.90;;;11.90;99.90;;;;;;5005297;28;20563;-81
2023/04/10 10:53:33;;;;;;;7.25;2.88;;;11.90;99.90;;;;;;4997744;28;20040;-81
2023/04/10 10:56:22;;;;;;;;;;;11.90;99.90;;;;;;5002288;28;20029;-83
2023/04/10 10:58:47;;;;;;;4.68;2.20;;;12.00;99.90;;;;;;5019333;28;20032;-83
2023/04/10 11:01:13;;;;;;;5.47;2.45;;;12.00;99.90;;;;;;5002568;28;20129;-84
2023/04/10 11:03:39;;;;;;;8.30;3.13;;;12.00;99.90;;;;;;5002222;28;20080;-83
2023/04/10 11:06:15;;;;;;;9.65;3.78;;;12.00;99.90;;;;;;4997972;28;20430;-83
2023/04/10 11:08:45;;;;;;;11.95;4.10;;;12.00;99.90;;;;;;4655161;28;10000034;-83
2023/04/10 11:11:22;;;;;;;17.38;4.55;;;11.90;99.90;;;;;;4998966;28;20065;-83
2023/04/10 11:13:56;;;;;;;19.15;5.00;;;12.00;99.90;;;;;;5004929;28;20033;-82
2023/04/10 11:16:40;;;;;;;18.80;5.43;;;12.10;99.90;;;;;;5021150;28;20337;-82
2023/04/10 11:19:13;;;;;;;18.13;5.20;;;12.20;99.90;;;;;;5022950;28;20088;-82
2023/04/10 11:22:06;;;;;;;17.35;4.85;;;12.30;99.90;;;;;;5004620;28;20071;-81
2023/04/10 11:24:53;;;;;;;21.73;5.88;;;12.40;99.90;;;;;;4995805;28;20302;-81
2023/04/10 11:27:40;;;;;;;21.20;5.43;;;12.40;99.90;;;;;;5006250;28;20037;-82
2023/04/10 11:30:24;;;;;;;16.05;5.20;;;12.50;99.90;;;;;;4990214;28;20032;-81
2023/04/10 11:32:50;;;;;;;26.08;5.38;;;12.50;99.90;;;;;;4997884;28;20032;-82
2023/04/10 11:35:18;;;;;;;33.60;5.82;;;12.50;99.90;;;;;;5002957;28;20449;-82
2023/04/10 11:37:44;;;;;;;31.55;7.43;;;12.60;99.90;;;;;;5019258;28;20060;-80
2023/04/10 11:40:10;;;;;;;24.70;4.82;;;12.90;99.90;;;;;;4996190;28;20553;-81
2023/04/10 11:42:36;;;;;;;23.67;5.03;;;13.10;99.90;;;;;;4997353;28;20481;-83
2023/04/10 11:45:23;;;;;;;20.83;3.92;;;13.40;99.90;;;;;;4994481;28;20107;-85
2023/04/10 11:47:53;;;;;;;27.75;4.95;;;13.50;99.90;;;;;;4984855;28;20421;-83
2023/04/10 11:50:20;;;;;;;24.13;4.57;;;13.60;99.90;;;;;;5032878;28;20485;-83
2023/04/10 11:52:48;;;;;;;23.20;3.55;;;13.90;99.90;;;;;;5002149;28;20034;-83
2023/04/10 11:55:15;;;;;;;22.50;4.57;;;14.00;99.90;;;;;;5011447;28;20629;-85
2023/04/10 11:57:41;;;;;;;22.67;4.50;;;14.10;99.90;;;;;;4999187;28;20036;-83
2023/04/10 12:00:07;;;;;;;19.35;3.55;;;14.20;99.90;;;;;;4994459;28;20023;-82
2023/04/10 12:02:33;;;;;;;19.25;3.45;;;14.30;99.90;;;;;;5008703;28;20025;-81
2023/04/10 12:04:59;;;;;;;25.08;3.47;;;14.30;99.90;;;;;;4677426;28;10000301;-82
2023/04/10 12:07:28;;;;;;;28.65;3.90;;;14.40;99.90;;;;;;5010599;28;20042;-82
2023/04/10 12:09:59;;;;;;;19.80;3.72;;;14.40;99.90;;;;;;4998649;28;20056;-84
2023/04/10 12:12:35;;;;;;;;;;;14.50;99.90;;;;;;5006625;28;20044;-82
2023/04/10 12:15:00;;;;;;;20.25;3.17;;;14.90;99.90;;;;;;5003207;28;20052;-81
2023/04/10 12:17:27;;;;;;;26.10;4.03;;;14.70;99.90;;;;;;4993844;28;20030;-80
2023/04/10 12:19:52;;;;;;;21.02;3.85;;;14.90;99.90;;;;;;4995980;28;20038;-79
2023/04/10 12:22:18;;;;;;;24.15;3.53;;;15.20;99.90;;;;;;4995871;28;20183;-78
2023/04/10 12:24:46;;;;;;;21.55;3.72;;;15.20;99.90;;;;;;4996309;28;20057;-79
2023/04/10 12:27:16;;;;;;;23.63;3.60;;;15.20;99.90;;;;;;4983877;28;20105;-78
2023/04/10 12:29:42;;;;;;;26.63;3.95;;;15.50;99.90;;;;;;5004029;28;20147;-79
2023/04/10 12:32:09;;;;;;;29.35;4.43;;;15.60;99.90;;;;;;4990335;28;20509;-77
2023/04/10 12:34:36;;;;;;;24.58;4.18;;;15.70;99.90;;;;;;4983810;28;20064;-79
2023/04/10 12:37:02;;;;;;;19.00;3.60;;;15.80;99.90;;;;;;4989844;28;20045;-79
2023/04/10 12:39:28;;;;;;;23.55;3.78;;;16.10;99.90;;;;;;4994835;28;20021;-78
2023/04/10 12:42:17;;;;;;;24.92;3.83;;;16.10;99.90;;;;;;4993205;28;20041;-78